Time;durP1;ratioP1;P1;durP2;ratioP2;P2;SDS_P1;SDS_P2;PMS_P1;PMS_P2;Temp;Humidity;BMP_temperature;BMP_pressure;BME280_temperature;BME280_humidity;BME280_pressure;Samples;Min_cycle;Max_cycle;Signal;HPM_P1;HPM_P2
2021/06/25 00:01:41;;;;;;;0.93;0.93;;;13.10;99.90;;;;;;5028775;28;20032;-87
2021/06/25 00:04:07;;;;;;;0.17;0.17;;;13.00;99.90;;;;;;5030628;28;20556;-87
2021/06/25 00:06:33;;;;;;;0.63;0.63;;;13.10;99.90;;;;;;5015161;28;20053;-88
2021/06/25 00:08:59;;;;;;;0.20;0.20;;;13.10;99.90;;;;;;5040041;28;20045;-88
2021/06/25 00:11:25;;;;;;;0.87;0.57;;;13.00;99.90;;;;;;5028811;28;20025;-88
2021/06/25 00:13:51;;;;;;;0.23;0.23;;;13.00;99.90;;;;;;5029166;28;20025;-88
2021/06/25 00:16:17;;;;;;;0.40;0.40;;;13.00;99.90;;;;;;5032205;28;20022;-88
2021/06/25 00:18:43;;;;;;;0.70;0.68;;;13.00;99.90;;;;;;5039557;28;20034;-88
2021/06/25 00:21:09;;;;;;;0.45;0.43;;;12.90;99.90;;;;;;5017740;28;20022;-88
2021/06/25 00:23:35;;;;;;;1.37;0.83;;;12.80;99.90;;;;;;5039371;28;20368;-87
2021/06/25 00:26:01;;;;;;;0.30;0.30;;;12.70;99.90;;;;;;5012378;28;20522;-88
2021/06/25 00:28:27;;;;;;;1.05;0.98;;;12.80;99.90;;;;;;5037773;28;20029;-88
2021/06/25 00:30:53;;;;;;;1.90;0.77;;;12.60;99.90;;;;;;5030552;28;20545;-88
2021/06/25 00:33:19;;;;;;;0.40;0.40;;;12.60;99.90;;;;;;5031400;28;20030;-88
2021/06/25 00:35:45;;;;;;;0.10;0.10;;;12.60;99.90;;;;;;5021684;28;20041;-88
2021/06/25 00:38:11;;;;;;;0.10;0.10;;;12.50;99.90;;;;;;5028820;28;20025;-87
2021/06/25 00:40:37;;;;;;;0.13;0.13;;;12.50;99.90;;;;;;5021281;28;20037;-87
2021/06/25 00:43:03;;;;;;;0.20;0.20;;;12.50;99.90;;;;;;5037269;28;20033;-87
2021/06/25 00:45:30;;;;;;;1.10;1.10;;;12.30;99.90;;;;;;5013209;28;20045;-87
2021/06/25 00:47:56;;;;;;;0.10;0.10;;;12.30;99.90;;;;;;5031640;28;20037;-88
2021/06/25 00:50:28;;;;;;;0.38;0.35;;;12.30;99.90;;;;;;5020744;28;20128;-87
2021/06/25 00:52:56;;;;;;;0.73;0.60;;;12.50;99.90;;;;;;5027381;28;20032;-87
2021/06/25 00:55:23;;;;;;;0.55;0.55;;;12.50;99.90;;;;;;5015244;28;20059;-88
2021/06/25 00:57:49;;;;;;;0.38;0.38;;;12.40;99.90;;;;;;5047430;28;20025;-88
2021/06/25 01:00:16;;;;;;;0.10;0.10;;;12.30;99.90;;;;;;5015392;28;20037;-87
2021/06/25 01:02:42;;;;;;;0.30;0.30;;;12.30;99.90;;;;;;5035950;28;20037;-88
2021/06/25 01:05:09;;;;;;;0.17;0.17;;;12.10;99.90;;;;;;5019884;28;20045;-88
2021/06/25 01:07:35;;;;;;;0.30;0.30;;;12.20;99.90;;;;;;5024003;28;20143;-88
2021/06/25 01:10:08;;;;;;;0.10;0.10;;;12.30;99.90;;;;;;5031608;28;20140;-88
2021/06/25 01:12:34;;;;;;;0.43;0.43;;;12.20;99.90;;;;;;5020498;28;20037;-88
2021/06/25 01:15:00;;;;;;;0.55;0.52;;;12.20;99.90;;;;;;5024879;28;20487;-88
2021/06/25 01:17:31;;;;;;;0.40;0.40;;;12.20;99.90;;;;;;5027833;28;20026;-88
2021/06/25 01:19:59;;;;;;;0.20;0.20;;;12.10;99.90;;;;;;5010217;28;20030;-88
2021/06/25 01:22:34;;;;;;;0.40;0.28;;;12.30;99.90;;;;;;5025621;28;20475;-90
2021/06/25 01:25:11;;;;;;;0.40;0.40;;;12.10;99.90;;;;;;5039443;28;20045;-89
2021/06/25 01:27:38;;;;;;;0.22;0.22;;;11.90;99.90;;;;;;5027578;28;20108;-87
2021/06/25 01:30:08;;;;;;;0.70;0.40;;;11.90;99.90;;;;;;5030234;28;20029;-86
2021/06/25 01:32:35;;;;;;;0.17;0.17;;;11.90;99.90;;;;;;5025042;28;20026;-87
2021/06/25 01:35:01;;;;;;;0.10;0.10;;;11.80;99.90;;;;;;5026734;28;20025;-87
2021/06/25 01:37:28;;;;;;;0.43;0.43;;;11.60;99.90;;;;;;5036151;28;20064;-87
2021/06/25 01:39:54;;;;;;;0.30;0.30;;;11.60;99.90;;;;;;5024725;28;20040;-87
2021/06/25 01:42:21;;;;;;;0.20;0.20;;;11.50;99.90;;;;;;5013755;28;20644;-87
2021/06/25 01:44:49;;;;;;;0.93;0.57;;;11.40;99.90;;;;;;5015790;28;20062;-87
2021/06/25 01:47:16;;;;;;;0.55;0.55;;;11.30;99.90;;;;;;5039961;28;20022;-87
2021/06/25 01:49:42;;;;;;;0.38;0.38;;;11.50;99.90;;;;;;5019667;28;20488;-87
2021/06/25 01:52:14;;;;;;;0.40;0.40;;;11.50;99.90;;;;;;5018380;28;20042;-87
2021/06/25 01:54:40;;;;;;;0.50;0.47;;;11.50;99.90;;;;;;5016158;28;20018;-87
2021/06/25 01:57:06;;;;;;;0.30;0.30;;;11.50;99.90;;;;;;5013833;28;20030;-87
2021/06/25 01:59:32;;;;;;;0.10;0.10;;;11.30;99.90;;;;;;5023076;28;20495;-87
2021/06/25 02:01:58;;;;;;;0.75;0.43;;;11.40;99.90;;;;;;5027402;28;20052;-87
2021/06/25 02:04:23;;;;;;;0.35;0.35;;;11.50;99.90;;;;;;5044652;28;20450;-87
2021/06/25 02:06:49;;;;;;;1.55;0.63;;;11.30;99.90;;;;;;5028113;28;20049;-87
2021/06/25 02:09:15;;;;;;;0.13;0.13;;;11.50;99.90;;;;;;5020358;28;20025;-87
2021/06/25 02:11:41;;;;;;;1.17;0.65;;;11.50;99.90;;;;;;5037709;28;20034;-87
2021/06/25 02:14:07;;;;;;;0.47;0.47;;;11.50;99.90;;;;;;5028861;28;20487;-88
2021/06/25 02:16:33;;;;;;;0.30;0.30;;;11.40;99.90;;;;;;5031748;28;20040;-88
2021/06/25 02:18:59;;;;;;;0.50;0.50;;;11.10;99.90;;;;;;5024381;28;20026;-87
2021/06/25 02:21:25;;;;;;;0.28;0.28;;;11.00;99.90;;;;;;5012327;28;20034;-87
2021/06/25 02:23:51;;;;;;;0.30;0.30;;;10.90;99.90;;;;;;5027898;28;20112;-87
2021/06/25 02:26:17;;;;;;;0.45;0.45;;;10.70;99.90;;;;;;5021560;28;20512;-87
2021/06/25 02:28:42;;;;;;;0.52;0.52;;;10.70;99.90;;;;;;5025290;28;20120;-88
2021/06/25 02:31:08;;;;;;;0.50;0.50;;;10.70;99.90;;;;;;5034626;28;20386;-88
2021/06/25 02:33:34;;;;;;;0.20;0.20;;;10.80;99.90;;;;;;5034416;28;20022;-89
2021/06/25 02:36:00;;;;;;;0.37;0.37;;;10.80;99.90;;;;;;5033922;28;20021;-89
2021/06/25 02:38:25;;;;;;;0.20;0.20;;;11.00;99.90;;;;;;5013601;28;20026;-88
2021/06/25 02:40:51;;;;;;;0.17;0.17;;;11.00;99.90;;;;;;5045710;28;20040;-88
2021/06/25 02:43:17;;;;;;;0.30;0.30;;;10.90;99.90;;;;;;5024792;28;20030;-88
2021/06/25 02:45:43;;;;;;;0.55;0.38;;;10.90;99.90;;;;;;5019138;28;20451;-88
2021/06/25 02:48:09;;;;;;;0.20;0.20;;;10.80;99.90;;;;;;5032279;28;20079;-88
2021/06/25 02:50:35;;;;;;;0.40;0.40;;;10.70;99.90;;;;;;5029469;28;20032;-87
2021/06/25 02:53:01;;;;;;;0.10;0.10;;;10.60;99.90;;;;;;5031547;28;20506;-88
2021/06/25 02:55:27;;;;;;;0.20;0.20;;;10.50;99.90;;;;;;5033080;28;20439;-88
2021/06/25 02:57:53;;;;;;;0.57;0.57;;;10.50;1.00;;;;;;5027571;28;20268;-88
2021/06/25 03:00:19;;;;;;;0.35;0.35;;;10.50;1.00;;;;;;5034849;28;20038;-89
2021/06/25 03:02:45;;;;;;;0.43;0.43;;;10.50;1.00;;;;;;5033554;28;20029;-90
2021/06/25 03:05:13;;;;;;;0.28;0.28;;;10.50;99.90;;;;;;5034146;28;20029;-91
2021/06/25 03:07:40;;;;;;;0.40;0.40;;;10.40;99.90;;;;;;5033674;28;20049;-89
2021/06/25 03:10:06;;;;;;;0.20;0.20;;;10.40;1.00;;;;;;5034169;28;20037;-89
2021/06/25 03:12:33;;;;;;;1.15;0.70;;;10.50;21.30;;;;;;5033706;28;20025;-88
2021/06/25 03:14:59;;;;;;;0.20;0.20;;;10.50;95.90;;;;;;5026784;28;20029;-88
2021/06/25 03:17:25;;;;;;;0.55;0.22;;;10.50;99.90;;;;;;5028966;28;20021;-89
2021/06/25 03:19:51;;;;;;;0.80;0.30;;;10.50;99.90;;;;;;5032960;28;20025;-88
2021/06/25 03:22:17;;;;;;;0.20;0.20;;;10.50;99.90;;;;;;5033177;28;20028;-89
2021/06/25 03:24:43;;;;;;;0.10;0.10;;;10.50;1.00;;;;;;5033794;28;20544;-88
2021/06/25 03:27:09;;;;;;;0.95;0.50;;;10.60;1.00;;;;;;5031380;28;20053;-88
2021/06/25 03:29:35;;;;;;;4.43;0.57;;;10.60;1.00;;;;;;5030725;28;20128;-88
2021/06/25 03:32:01;;;;;;;0.10;0.10;;;10.60;48.50;;;;;;5029571;28;20034;-88
2021/06/25 03:34:27;;;;;;;0.30;0.30;;;10.50;82.20;;;;;;5017398;28;20022;-88
2021/06/25 03:36:54;;;;;;;0.40;0.40;;;10.60;99.90;;;;;;5033292;28;20036;-88
2021/06/25 03:39:20;;;;;;;0.10;0.10;;;10.50;99.90;;;;;;5024233;28;20044;-89
2021/06/25 03:41:46;;;;;;;0.10;0.10;;;10.50;99.90;;;;;;5033990;28;20033;-88
2021/06/25 03:44:12;;;;;;;0.10;0.10;;;10.40;35.30;;;;;;5032687;28;20407;-88
2021/06/25 03:46:43;;;;;;;0.27;0.27;;;10.40;1.00;;;;;;5020577;28;20435;-88
2021/06/25 03:49:09;;;;;;;0.35;0.35;;;10.40;99.90;;;;;;5029550;28;20570;-88
2021/06/25 03:51:34;;;;;;;0.25;0.25;;;10.20;99.90;;;;;;5018279;28;20097;-88
2021/06/25 03:54:02;;;;;;;0.10;0.10;;;10.30;99.90;;;;;;5036155;28;20754;-87
2021/06/25 03:56:28;;;;;;;0.20;0.20;;;10.30;99.90;;;;;;5028170;28;20488;-88
2021/06/25 03:58:54;;;;;;;1.35;0.60;;;10.30;99.90;;;;;;5016666;28;20045;-88
2021/06/25 04:01:21;;;;;;;0.20;0.20;;;10.20;1.00;;;;;;5029267;28;20079;-89
2021/06/25 04:03:47;;;;;;;0.28;0.28;;;10.30;99.90;;;;;;5023223;28;20280;-88
2021/06/25 04:06:14;;;;;;;0.25;0.25;;;10.40;99.90;;;;;;5021230;28;20412;-88
2021/06/25 04:08:40;;;;;;;0.22;0.22;;;10.40;1.00;;;;;;5020362;28;20021;-87
2021/06/25 04:11:08;;;;;;;0.52;0.52;;;10.50;1.00;;;;;;5031480;28;20580;-88
2021/06/25 04:13:36;;;;;;;0.10;0.10;;;10.60;1.00;;;;;;5033983;28;20025;-88
2021/06/25 04:16:02;;;;;;;0.20;0.20;;;10.60;1.00;;;;;;5032397;28;20387;-88
2021/06/25 04:18:28;;;;;;;0.22;0.22;;;10.70;1.00;;;;;;5027423;28;20127;-88
2021/06/25 04:20:55;;;;;;;0.27;0.27;;;10.70;1.00;;;;;;5018333;28;20424;-89
2021/06/25 04:23:21;;;;;;;0.30;0.30;;;10.80;1.00;;;;;;5032374;28;20107;-89
2021/06/25 04:25:47;;;;;;;1.55;1.45;;;10.70;1.00;;;;;;5030486;28;20057;-89
2021/06/25 04:28:13;;;;;;;0.77;0.25;;;10.80;53.10;;;;;;5032302;28;20108;-88
2021/06/25 04:30:41;;;;;;;1.65;0.75;;;10.90;91.40;;;;;;5030906;28;20568;-87
2021/06/25 04:33:09;;;;;;;0.17;0.17;;;10.90;99.90;;;;;;5036074;28;20034;-89
2021/06/25 04:35:35;;;;;;;0.30;0.30;;;10.90;99.90;;;;;;5036720;28;20116;-88
2021/06/25 04:38:03;;;;;;;0.70;0.63;;;10.90;99.90;;;;;;5027070;28;20108;-88
2021/06/25 04:40:30;;;;;;;0.30;0.30;;;11.00;99.90;;;;;;5041020;28;20117;-88
2021/06/25 04:42:56;;;;;;;0.38;0.38;;;11.00;99.90;;;;;;5012787;28;20026;-87
2021/06/25 04:45:22;;;;;;;0.20;0.20;;;11.10;99.90;;;;;;5012758;28;20040;-87
2021/06/25 04:47:48;;;;;;;0.20;0.20;;;11.00;99.90;;;;;;5027452;28;20024;-87
2021/06/25 04:50:14;;;;;;;1.08;0.57;;;11.10;99.90;;;;;;5029496;28;20120;-87
2021/06/25 04:52:40;;;;;;;0.32;0.32;;;11.20;99.90;;;;;;5015565;28;20097;-88
2021/06/25 04:55:07;;;;;;;0.20;0.20;;;11.10;83.20;;;;;;5020642;28;20026;-87
2021/06/25 04:57:33;;;;;;;0.30;0.30;;;11.10;60.30;;;;;;5026275;28;20092;-88
2021/06/25 04:59:59;;;;;;;0.30;0.30;;;11.20;42.00;;;;;;5033369;28;20026;-87
2021/06/25 05:02:25;;;;;;;0.10;0.10;;;11.20;1.80;;;;;;5014367;28;20512;-87
2021/06/25 05:04:51;;;;;;;0.00;0.00;;;11.20;1.00;;;;;;5037318;28;20026;-87
2021/06/25 05:07:17;;;;;;;0.20;0.20;;;11.20;1.00;;;;;;5019384;28;20578;-87
2021/06/25 05:09:43;;;;;;;0.20;0.20;;;11.30;1.00;;;;;;5019253;28;20030;-88
2021/06/25 05:12:09;;;;;;;0.47;0.47;;;11.40;1.00;;;;;;5025629;28;20038;-87
2021/06/25 05:14:35;;;;;;;0.20;0.20;;;11.50;1.00;;;;;;5016251;28;20109;-88
2021/06/25 05:17:01;;;;;;;0.30;0.30;;;11.60;99.90;;;;;;5034270;28;20026;-87
2021/06/25 05:19:27;;;;;;;0.57;0.57;;;11.60;99.90;;;;;;5028600;28;20030;-87
2021/06/25 05:21:53;;;;;;;0.10;0.10;;;11.60;99.90;;;;;;5015047;28;20026;-87
2021/06/25 05:24:18;;;;;;;0.27;0.27;;;11.70;99.90;;;;;;5019806;28;20052;-87
2021/06/25 05:26:44;;;;;;;0.40;0.37;;;11.60;99.90;;;;;;5041626;28;20041;-89
2021/06/25 05:29:10;;;;;;;0.47;0.23;;;11.60;1.00;;;;;;5020504;28;20025;-88
2021/06/25 05:31:36;;;;;;;0.33;0.33;;;11.90;1.00;;;;;;5027444;28;20017;-87
2021/06/25 05:34:01;;;;;;;0.10;0.10;;;11.70;1.00;;;;;;5010953;28;20030;-88
2021/06/25 05:36:27;;;;;;;0.40;0.40;;;12.00;99.90;;;;;;5038310;28;20052;-87
2021/06/25 05:38:53;;;;;;;0.20;0.20;;;12.20;99.90;;;;;;5027188;28;20022;-87
2021/06/25 05:41:19;;;;;;;0.27;0.27;;;12.20;99.90;;;;;;5021784;28;20033;-87
2021/06/25 05:43:44;;;;;;;0.30;0.30;;;12.10;1.00;;;;;;5026725;28;20038;-87
2021/06/25 05:46:12;;;;;;;0.20;0.20;;;12.30;1.00;;;;;;5023887;28;20034;-87
2021/06/25 05:48:41;;;;;;;0.20;0.20;;;12.30;99.90;;;;;;5018746;28;20026;-87
2021/06/25 05:51:09;;;;;;;0.50;0.50;;;12.50;99.90;;;;;;5035773;28;20065;-86
2021/06/25 05:53:38;;;;;;;0.30;0.30;;;12.80;99.90;;;;;;5021960;28;20100;-84
2021/06/25 05:56:07;;;;;;;0.38;0.30;;;12.90;99.90;;;;;;5012068;28;20053;-84
2021/06/25 05:58:34;;;;;;;0.10;0.10;;;13.20;99.90;;;;;;5021313;28;20033;-84
2021/06/25 06:01:01;;;;;;;;;;;13.30;99.90;;;;;;5015959;28;20037;-85
2021/06/25 06:03:29;;;;;;;0.30;0.30;;;13.20;99.90;;;;;;5023468;28;19939;-84
2021/06/25 06:05:55;;;;;;;0.15;0.15;;;13.40;99.90;;;;;;5027673;28;20045;-84
2021/06/25 06:08:21;;;;;;;0.20;0.20;;;13.70;99.90;;;;;;5021199;28;20048;-84
2021/06/25 06:10:47;;;;;;;0.30;0.30;;;14.00;99.90;;;;;;5024087;28;20036;-84
2021/06/25 06:13:13;;;;;;;0.30;0.20;;;14.30;99.90;;;;;;5020625;28;20276;-84
2021/06/25 06:15:39;;;;;;;0.20;0.20;;;14.50;99.90;;;;;;5018577;28;20272;-84
2021/06/25 06:18:06;;;;;;;0.10;0.10;;;14.40;99.90;;;;;;5023041;28;20025;-86
2021/06/25 06:20:35;;;;;;;0.28;0.28;;;14.20;99.90;;;;;;5026089;28;20077;-85
2021/06/25 06:31:25;;;;;;;0.68;0.68;;;15.80;99.90;;;;;;5020272;28;20064;-85
2021/06/25 06:34:08;;;;;;;0.10;0.10;;;15.60;99.90;;;;;;5019527;28;20518;-84
2021/06/25 06:36:40;;;;;;;0.10;0.10;;;15.70;99.90;;;;;;5012030;28;20064;-84
2021/06/25 06:39:07;;;;;;;0.85;0.57;;;15.80;99.90;;;;;;5014038;28;20045;-84
2021/06/25 06:41:33;;;;;;;;;;;16.60;99.90;;;;;;5016300;28;20030;-84
2021/06/25 06:43:59;;;;;;;0.10;0.10;;;18.70;99.90;;;;;;5028352;28;19905;-85
2021/06/25 06:46:26;;;;;;;0.00;0.00;;;19.90;99.90;;;;;;5032775;28;20037;-82
2021/06/25 06:48:52;;;;;;;;;;;16.30;99.90;;;;;;5031741;28;20109;-82
2021/06/25 06:51:18;;;;;;;;;;;17.30;99.90;;;;;;5031321;28;19913;-81
2021/06/25 06:53:44;;;;;;;0.90;0.85;;;15.90;99.90;;;;;;5030518;28;19913;-81
2021/06/25 06:56:11;;;;;;;0.10;0.10;;;18.70;99.90;;;;;;5032356;28;20056;-85
2021/06/25 06:58:38;;;;;;;0.13;0.13;;;20.60;99.90;;;;;;5031249;28;20057;-85
2021/06/25 07:01:05;;;;;;;0.70;0.28;;;22.20;99.90;;;;;;5032723;28;20076;-85
2021/06/25 07:03:30;;;;;;;1.08;0.10;;;21.90;99.90;;;;;;5021893;28;20076;-85
2021/06/25 07:05:56;;;;;;;0.08;0.08;;;22.30;99.90;;;;;;5031977;28;20074;-86
2021/06/25 07:08:22;;;;;;;0.20;0.20;;;22.40;99.90;;;;;;5031860;28;20069;-84
2021/06/25 07:10:48;;;;;;;0.00;0.00;;;21.60;99.90;;;;;;5020801;28;20029;-85
2021/06/25 07:13:14;;;;;;;0.00;0.00;;;22.50;99.90;;;;;;5026449;28;20033;-85
2021/06/25 07:15:40;;;;;;;0.17;0.17;;;22.20;99.90;;;;;;5014090;28;20101;-85
2021/06/25 07:18:06;;;;;;;0.10;0.10;;;22.80;99.90;;;;;;5036308;28;20026;-84
2021/06/25 07:20:32;;;;;;;0.30;0.30;;;23.40;99.90;;;;;;5012532;28;20037;-84
2021/06/25 07:22:59;;;;;;;0.10;0.00;;;23.10;99.90;;;;;;5014154;28;20038;-85
2021/06/25 07:25:24;;;;;;;;;;;24.20;99.90;;;;;;5028639;28;20076;-84
2021/06/25 07:27:50;;;;;;;0.10;0.00;;;25.20;99.90;;;;;;5011117;28;19968;-84
2021/06/25 07:30:17;;;;;;;0.10;0.10;;;26.70;99.90;;;;;;5011907;28;20033;-84
2021/06/25 07:32:42;;;;;;;0.17;0.00;;;26.00;99.90;;;;;;5020617;28;20021;-85
2021/06/25 07:35:09;;;;;;;0.25;0.25;;;25.70;99.90;;;;;;5030264;28;20395;-84
2021/06/25 07:37:35;;;;;;;0.03;0.03;;;25.10;99.90;;;;;;5032742;28;20533;-85
2021/06/25 07:40:01;;;;;;;;;;;26.00;99.90;;;;;;5032714;28;20017;-85
2021/06/25 07:42:27;;;;;;;0.10;0.00;;;27.20;99.90;;;;;;5032715;28;20394;-84
2021/06/25 07:44:53;;;;;;;0.05;0.05;;;27.40;98.80;;;;;;5032133;28;20051;-84
2021/06/25 07:47:18;;;;;;;0.73;0.40;;;26.10;96.60;;;;;;5032778;28;20057;-85
2021/06/25 07:49:45;;;;;;;0.13;0.05;;;26.20;99.40;;;;;;5032026;28;20029;-84
2021/06/25 07:52:11;;;;;;;;;;;28.10;97.00;;;;;;5032698;28;20469;-85
2021/06/25 07:54:37;;;;;;;0.20;0.20;;;28.00;95.00;;;;;;5031968;28;19968;-84
2021/06/25 07:57:03;;;;;;;0.10;0.10;;;28.60;94.50;;;;;;5030904;28;20028;-85
2021/06/25 07:59:29;;;;;;;0.20;0.20;;;27.40;93.50;;;;;;5030433;28;20053;-84
2021/06/25 08:01:55;;;;;;;;;;;27.10;91.70;;;;;;5030717;28;20565;-85
2021/06/25 08:04:21;;;;;;;0.20;0.20;;;26.30;92.20;;;;;;5046423;28;19944;-85
2021/06/25 08:06:47;;;;;;;;;;;27.90;92.10;;;;;;5031497;28;20055;-84
2021/06/25 08:09:13;;;;;;;0.10;0.10;;;26.10;90.40;;;;;;5030540;28;20007;-85
2021/06/25 08:11:38;;;;;;;;;;;26.50;90.50;;;;;;5047180;28;20037;-85
2021/06/25 08:14:06;;;;;;;0.10;0.10;;;29.00;88.00;;;;;;5031183;28;19909;-85
2021/06/25 08:16:32;;;;;;;0.00;0.00;;;27.80;90.10;;;;;;5031089;28;20025;-85
2021/06/25 08:18:58;;;;;;;;;;;28.80;88.90;;;;;;5031985;28;20017;-85
2021/06/25 08:21:29;;;;;;;0.00;0.00;;;29.50;84.40;;;;;;5031125;28;19912;-85
2021/06/25 08:23:55;;;;;;;0.00;0.00;;;28.20;76.60;;;;;;5029549;28;20083;-85
2021/06/25 08:26:21;;;;;;;0.20;0.10;;;28.80;78.60;;;;;;5029939;28;20026;-85
2021/06/25 08:28:48;;;;;;;0.30;0.20;;;29.70;78.90;;;;;;5046940;28;20033;-85
2021/06/25 08:31:14;;;;;;;0.10;0.10;;;30.50;72.80;;;;;;5031472;28;20061;-86
2021/06/25 08:33:40;;;;;;;0.28;0.22;;;31.60;68.50;;;;;;5046752;28;20037;-85
2021/06/25 08:36:07;;;;;;;1.17;0.47;;;29.90;76.70;;;;;;5046827;28;20403;-86
2021/06/25 08:38:33;;;;;;;0.40;0.40;;;30.00;70.70;;;;;;5045956;28;20029;-86
2021/06/25 08:41:00;;;;;;;0.00;0.00;;;31.10;72.70;;;;;;5030780;28;20029;-86
2021/06/25 08:43:26;;;;;;;0.20;0.20;;;30.00;64.40;;;;;;5027458;28;20033;-86
2021/06/25 08:45:52;;;;;;;0.03;0.03;;;30.20;64.70;;;;;;5012045;28;20030;-86
2021/06/25 08:48:19;;;;;;;0.17;0.17;;;28.00;62.80;;;;;;5027064;28;20032;-85
2021/06/25 08:50:53;;;;;;;0.00;0.00;;;29.60;69.70;;;;;;5022440;28;20029;-85
2021/06/25 08:53:20;;;;;;;0.95;0.40;;;30.30;61.60;;;;;;5030073;28;20116;-86
2021/06/25 08:55:46;;;;;;;0.10;0.10;;;32.30;63.60;;;;;;5030843;28;20076;-85
2021/06/25 08:58:12;;;;;;;;;;;31.30;59.90;;;;;;5031127;28;20029;-86
2021/06/25 09:00:38;;;;;;;0.10;0.10;;;31.00;60.60;;;;;;5030055;28;19913;-86
2021/06/25 09:03:04;;;;;;;;;;;33.50;57.70;;;;;;5030684;28;20616;-86
2021/06/25 09:05:29;;;;;;;1.75;1.08;;;34.20;51.10;;;;;;5028900;28;19909;-85
2021/06/25 09:07:56;;;;;;;;;;;35.80;47.90;;;;;;5028713;28;20037;-86
2021/06/25 09:10:39;;;;;;;0.35;0.30;;;35.00;47.40;;;;;;5028918;28;19948;-85
2021/06/25 09:13:11;;;;;;;0.10;0.10;;;32.90;52.70;;;;;;5010005;28;20040;-85
2021/06/25 09:15:39;;;;;;;0.10;0.10;;;33.30;50.50;;;;;;5009891;28;20407;-85
2021/06/25 09:18:11;;;;;;;0.10;0.10;;;32.50;46.70;;;;;;5010073;28;20491;-85
2021/06/25 09:20:39;;;;;;;0.10;0.10;;;35.30;46.50;;;;;;5024905;28;20029;-85
2021/06/25 09:23:12;;;;;;;2.05;1.13;;;34.40;45.40;;;;;;5037124;28;20033;-84
2021/06/25 09:25:58;;;;;;;0.08;0.08;;;32.00;52.00;;;;;;5028632;28;20024;-84
2021/06/25 09:28:30;;;;;;;0.20;0.20;;;31.40;45.10;;;;;;5027398;28;20076;-84
2021/06/25 09:30:56;;;;;;;0.43;0.35;;;27.90;54.90;;;;;;5028664;28;20395;-84
2021/06/25 09:33:22;;;;;;;;;;;25.40;58.30;;;;;;5029609;28;20068;-83
2021/06/25 09:35:55;;;;;;;0.22;0.22;;;24.70;61.30;;;;;;5027636;28;19971;-83
2021/06/25 09:38:39;;;;;;;0.30;0.20;;;24.20;66.10;;;;;;5047903;28;20045;-84
2021/06/25 09:41:19;;;;;;;0.20;0.20;;;24.30;63.80;;;;;;5032915;28;20084;-83
2021/06/25 09:43:56;;;;;;;0.10;0.10;;;24.30;65.60;;;;;;5024579;28;20022;-83
2021/06/25 09:46:29;;;;;;;0.10;0.10;;;31.90;53.80;;;;;;5013345;28;20048;-83
2021/06/25 09:48:57;;;;;;;0.20;0.20;;;36.70;37.10;;;;;;5013288;28;20034;-83
2021/06/25 09:51:24;;;;;;;0.10;0.10;;;38.50;31.60;;;;;;5011777;28;20044;-83
2021/06/25 09:54:12;;;;;;;0.28;0.10;;;37.60;34.30;;;;;;5013015;28;20022;-84
2021/06/25 09:56:44;;;;;;;0.00;0.00;;;37.10;28.20;;;;;;5013054;28;20022;-84
2021/06/25 09:59:30;;;;;;;0.10;0.10;;;37.60;24.70;;;;;;5012600;28;20400;-84
2021/06/25 10:02:18;;;;;;;0.00;0.00;;;36.10;29.20;;;;;;5012719;28;20396;-84
2021/06/25 10:04:48;;;;;;;0.93;0.45;;;34.80;27.20;;;;;;5012712;28;20061;-84
2021/06/25 10:07:35;;;;;;;0.15;0.15;;;36.60;24.90;;;;;;5012365;28;20057;-84
2021/06/25 10:10:09;;;;;;;0.10;0.10;;;39.20;23.90;;;;;;5029549;28;20076;-84
2021/06/25 10:12:41;;;;;;;0.15;0.15;;;36.00;23.50;;;;;;5032499;28;20060;-84
2021/06/25 10:15:07;;;;;;;0.82;0.82;;;35.80;29.10;;;;;;5030986;28;20033;-85
2021/06/25 10:17:36;;;;;;;0.43;0.20;;;33.40;23.30;;;;;;5031838;28;20018;-83
2021/06/25 10:20:07;;;;;;;0.00;0.00;;;28.50;35.80;;;;;;5030939;28;20765;-83
2021/06/25 10:22:36;;;;;;;0.00;0.00;;;27.10;39.80;;;;;;5011091;28;20033;-83
2021/06/25 10:25:04;;;;;;;0.10;0.10;;;26.40;42.70;;;;;;5028373;28;20037;-83
2021/06/25 10:27:31;;;;;;;0.45;0.32;;;25.90;45.20;;;;;;5029618;28;20040;-83
2021/06/25 10:29:58;;;;;;;0.00;0.00;;;24.80;50.90;;;;;;5026991;28;20036;-83
2021/06/25 10:32:24;;;;;;;2.20;0.43;;;24.60;53.20;;;;;;5031102;28;20072;-83
2021/06/25 10:34:50;;;;;;;0.10;0.10;;;29.10;46.20;;;;;;5031730;28;20487;-83
2021/06/25 10:37:21;;;;;;;0.00;0.00;;;25.80;48.20;;;;;;5011980;28;20049;-83
2021/06/25 10:39:47;;;;;;;0.47;0.30;;;32.80;37.00;;;;;;5028664;28;20041;-83
2021/06/25 10:42:13;;;;;;;0.10;0.00;;;33.10;35.30;;;;;;5031254;28;20079;-83
2021/06/25 10:44:54;;;;;;;0.00;0.00;;;33.10;31.50;;;;;;5031745;28;20048;-83
2021/06/25 10:47:32;;;;;;;0.10;0.10;;;29.80;32.40;;;;;;5031808;28;20083;-83
2021/06/25 10:52:38;;;;;;;0.20;0.20;;;36.30;22.60;;;;;;5023108;28;20108;-83
2021/06/25 10:55:07;;;;;;;3.03;0.65;;;39.20;18.00;;;;;;5031778;28;20041;-83
2021/06/25 10:57:57;;;;;;;0.00;0.00;;;38.40;15.70;;;;;;5024461;28;20029;-82
2021/06/25 11:00:54;;;;;;;0.05;0.05;;;31.70;24.40;;;;;;5011802;28;20108;-82
2021/06/25 11:03:41;;;;;;;1.35;0.95;;;27.00;38.90;;;;;;5018217;28;20460;-83
2021/06/25 11:06:29;;;;;;;0.20;0.20;;;26.00;42.20;;;;;;5030799;28;20045;-81
2021/06/25 11:09:05;;;;;;;0.05;0.05;;;32.30;28.40;;;;;;5038341;28;20036;-83
2021/06/25 11:11:31;;;;;;;0.28;0.28;;;34.20;25.20;;;;;;5051384;28;20021;-83
2021/06/25 11:13:57;;;;;;;0.10;0.10;;;33.90;38.00;;;;;;5045172;28;20033;-82
2021/06/25 11:16:23;;;;;;;1.08;0.73;;;36.20;21.60;;;;;;5030599;28;20029;-82
2021/06/25 11:18:50;;;;;;;0.20;0.20;;;34.10;29.00;;;;;;5029978;28;20037;-82
2021/06/25 11:21:17;;;;;;;0.90;0.17;;;34.60;27.80;;;;;;5022573;28;20196;-82
2021/06/25 11:23:43;;;;;;;;;;;34.50;22.20;;;;;;5011474;28;20029;-82
2021/06/25 11:26:15;;;;;;;0.03;0.03;;;34.00;25.60;;;;;;5010924;28;20505;-82
2021/06/25 11:28:43;;;;;;;0.13;0.13;;;32.60;26.80;;;;;;5012071;28;20032;-83
2021/06/25 11:31:22;;;;;;;0.35;0.35;;;30.10;29.50;;;;;;5018574;28;20108;-82
2021/06/25 11:33:49;;;;;;;0.22;0.22;;;26.70;35.40;;;;;;5017475;28;20022;-83
2021/06/25 11:36:45;;;;;;;0.40;0.40;;;26.30;37.70;;;;;;5027744;28;20101;-82
2021/06/25 11:39:28;;;;;;;;;;;25.40;41.20;;;;;;5039184;28;20026;-82
2021/06/25 11:42:12;;;;;;;0.08;0.08;;;24.40;44.80;;;;;;5016710;28;19916;-82
2021/06/25 11:44:42;;;;;;;1.15;0.52;;;23.70;49.00;;;;;;5028129;28;20028;-82
2021/06/25 11:47:18;;;;;;;0.10;0.10;;;23.60;50.20;;;;;;5010934;28;20041;-83
2021/06/25 11:52:22;;;;;;;0.05;0.05;;;23.90;49.10;;;;;;5015640;28;20112;-83
2021/06/25 11:55:11;;;;;;;0.73;0.73;;;24.50;51.00;;;;;;5026405;28;20105;-83
2021/06/25 11:57:41;;;;;;;0.13;0.13;;;25.70;48.10;;;;;;5021677;28;20057;-83
2021/06/25 12:00:15;;;;;;;0.40;0.30;;;25.50;49.40;;;;;;5034842;28;20062;-83
2021/06/25 12:02:45;;;;;;;0.10;0.10;;;25.20;48.60;;;;;;5021353;28;20547;-84
2021/06/25 12:05:16;;;;;;;0.00;0.00;;;24.70;46.80;;;;;;5019285;28;20040;-83
2021/06/25 12:07:59;;;;;;;0.10;0.10;;;24.30;47.40;;;;;;5011804;28;20062;-84
2021/06/25 12:10:27;;;;;;;0.10;0.00;;;23.30;48.90;;;;;;5026729;28;20017;-84
2021/06/25 12:12:59;;;;;;;0.10;0.10;;;23.30;51.40;;;;;;5015857;28;20899;-84
2021/06/25 12:15:28;;;;;;;1.45;0.75;;;23.50;49.90;;;;;;5022489;28;20495;-84
2021/06/25 12:17:57;;;;;;;0.30;0.30;;;23.40;51.80;;;;;;5018134;28;20164;-84
2021/06/25 12:20:27;;;;;;;0.10;0.10;;;23.90;51.80;;;;;;5019254;28;20106;-84
2021/06/25 12:22:59;;;;;;;0.60;0.20;;;24.30;51.70;;;;;;5011055;28;20072;-84
2021/06/25 12:25:39;;;;;;;0.65;0.63;;;25.60;48.80;;;;;;5018159;28;20017;-84
2021/06/25 12:28:11;;;;;;;0.00;0.00;;;25.00;50.10;;;;;;5018164;28;20407;-83
2021/06/25 12:30:44;;;;;;;0.00;0.00;;;25.10;49.90;;;;;;5043938;28;20029;-84
2021/06/25 12:33:12;;;;;;;0.20;0.10;;;25.60;48.00;;;;;;5025693;28;20040;-83
2021/06/25 12:35:47;;;;;;;0.10;0.10;;;24.60;48.20;;;;;;5015182;28;20415;-84
2021/06/25 12:38:26;;;;;;;0.13;0.13;;;24.40;50.50;;;;;;5008993;28;20026;-83
2021/06/25 12:40:59;;;;;;;1.08;0.13;;;25.10;51.40;;;;;;5020280;28;20054;-84
2021/06/25 12:43:31;;;;;;;0.60;0.20;;;25.20;49.80;;;;;;5019558;28;20037;-84
2021/06/25 12:46:11;;;;;;;0.10;0.10;;;24.70;52.10;;;;;;5024844;28;20022;-83
2021/06/25 12:48:40;;;;;;;0.10;0.10;;;25.10;51.60;;;;;;5016276;28;20029;-83
2021/06/25 12:51:15;;;;;;;0.00;0.00;;;25.50;49.10;;;;;;5020246;28;20021;-83
2021/06/25 12:53:49;;;;;;;0.65;0.10;;;25.30;48.90;;;;;;5032759;28;20592;-84
2021/06/25 12:56:23;;;;;;;0.28;0.20;;;24.80;47.60;;;;;;5027268;28;20437;-84
2021/06/25 12:59:11;;;;;;;0.88;0.30;;;24.60;51.10;;;;;;5026371;28;20032;-83
2021/06/25 13:01:42;;;;;;;0.20;0.08;;;24.30;52.70;;;;;;5020127;28;20029;-83
2021/06/25 13:04:25;;;;;;;0.00;0.00;;;23.90;52.20;;;;;;5021865;28;20029;-83
2021/06/25 13:06:56;;;;;;;0.03;0.03;;;24.00;52.50;;;;;;5017169;28;20049;-83
2021/06/25 13:09:38;;;;;;;0.40;0.20;;;24.00;51.90;;;;;;5009210;28;20030;-83
2021/06/25 13:12:16;;;;;;;0.03;0.03;;;24.10;53.60;;;;;;5021107;28;20037;-83
2021/06/25 13:14:49;;;;;;;0.25;0.25;;;23.80;56.60;;;;;;5038690;28;20041;-83